sensor_id;sensor_type;location;lat;lon;timestamp;temperature;humidity
21037;DHT22;10677;50.942;4.028;2023-05-10T00:01:49;14.70;99.90
21037;DHT22;10677;50.942;4.028;2023-05-10T00:04:14;14.70;99.90
21037;DHT22;10677;50.942;4.028;2023-05-10T00:06:40;14.70;99.90
21037;DHT22;10677;50.942;4.028;2023-05-10T00:09:06;14.70;99.90
21037;DHT22;10677;50.942;4.028;2023-05-10T00:11:31;14.60;99.90
21037;DHT22;10677;50.942;4.028;2023-05-10T00:13:57;14.50;99.90
21037;DHT22;10677;50.942;4.028;2023-05-10T00:16:23;14.50;99.90
21037;DHT22;10677;50.942;4.028;2023-05-10T00:18:48;14.50;99.90
21037;DHT22;10677;50.942;4.028;2023-05-10T00:21:14;14.50;99.90
21037;DHT22;10677;50.942;4.028;2023-05-10T00:23:40;14.50;99.90
21037;DHT22;10677;50.942;4.028;2023-05-10T00:26:05;14.40;99.90
21037;DHT22;10677;50.942;4.028;2023-05-10T00:28:31;14.40;99.90
21037;DHT22;10677;50.942;4.028;2023-05-10T00:30:57;14.40;99.90
21037;DHT22;10677;50.942;4.028;2023-05-10T00:33:22;14.40;99.90
21037;DHT22;10677;50.942;4.028;2023-05-10T00:35:48;14.50;99.90
21037;DHT22;10677;50.942;4.028;2023-05-10T00:38:14;14.40;99.90
21037;DHT22;10677;50.942;4.028;2023-05-10T00:40:39;14.40;99.90
21037;DHT22;10677;50.942;4.028;2023-05-10T00:43:05;14.40;99.90
21037;DHT22;10677;50.942;4.028;2023-05-10T00:45:32;14.40;99.90
21037;DHT22;10677;50.942;4.028;2023-05-10T00:48:00;14.40;99.90
21037;DHT22;10677;50.942;4.028;2023-05-10T00:50:28;14.50;99.90
21037;DHT22;10677;50.942;4.028;2023-05-10T00:52:54;14.60;99.90
21037;DHT22;10677;50.942;4.028;2023-05-10T00:55:20;14.50;99.90
21037;DHT22;10677;50.942;4.028;2023-05-10T00:57:47;14.50;99.90
21037;DHT22;10677;50.942;4.028;2023-05-10T01:00:13;14.50;99.90
21037;DHT22;10677;50.942;4.028;2023-05-10T01:02:46;14.40;99.90
21037;DHT22;10677;50.942;4.028;2023-05-10T01:05:13;14.50;99.90
21037;DHT22;10677;50.942;4.028;2023-05-10T01:07:39;14.50;99.90
21037;DHT22;10677;50.942;4.028;2023-05-10T01:10:06;14.50;99.90
21037;DHT22;10677;50.942;4.028;2023-05-10T01:15:07;14.50;99.90
21037;DHT22;10677;50.942;4.028;2023-05-10T01:17:34;14.50;99.90
21037;DHT22;10677;50.942;4.028;2023-05-10T01:20:01;14.50;99.90
21037;DHT22;10677;50.942;4.028;2023-05-10T01:36:32;14.60;99.90
21037;DHT22;10677;50.942;4.028;2023-05-10T01:39:23;14.50;99.90
21037;DHT22;10677;50.942;4.028;2023-05-10T01:41:54;14.40;99.90
21037;DHT22;10677;50.942;4.028;2023-05-10T01:44:24;14.30;99.90
21037;DHT22;10677;50.942;4.028;2023-05-10T01:47:01;14.40;99.90
21037;DHT22;10677;50.942;4.028;2023-05-10T01:49:33;14.40;99.90
21037;DHT22;10677;50.942;4.028;2023-05-10T01:52:06;14.40;99.90
21037;DHT22;10677;50.942;4.028;2023-05-10T01:54:33;14.30;99.90
21037;DHT22;10677;50.942;4.028;2023-05-10T01:57:03;14.30;99.90
21037;DHT22;10677;50.942;4.028;2023-05-10T01:59:33;14.30;99.90
21037;DHT22;10677;50.942;4.028;2023-05-10T02:02:02;14.30;99.90
21037;DHT22;10677;50.942;4.028;2023-05-10T02:04:30;14.40;99.90
21037;DHT22;10677;50.942;4.028;2023-05-10T02:06:59;14.30;99.90
21037;DHT22;10677;50.942;4.028;2023-05-10T02:09:25;14.30;99.90
21037;DHT22;10677;50.942;4.028;2023-05-10T02:11:53;14.30;99.90
21037;DHT22;10677;50.942;4.028;2023-05-10T02:14:21;14.30;99.90
21037;DHT22;10677;50.942;4.028;2023-05-10T02:16:47;14.30;99.90
21037;DHT22;10677;50.942;4.028;2023-05-10T02:19:14;14.20;99.90
21037;DHT22;10677;50.942;4.028;2023-05-10T02:21:41;14.10;99.90
21037;DHT22;10677;50.942;4.028;2023-05-10T02:24:08;14.20;99.90
21037;DHT22;10677;50.942;4.028;2023-05-10T02:26:36;14.20;99.90
21037;DHT22;10677;50.942;4.028;2023-05-10T02:29:03;14.20;99.90
21037;DHT22;10677;50.942;4.028;2023-05-10T02:31:34;14.20;99.90
21037;DHT22;10677;50.942;4.028;2023-05-10T02:34:01;14.20;99.90
21037;DHT22;10677;50.942;4.028;2023-05-10T02:36:28;14.00;99.90
21037;DHT22;10677;50.942;4.028;2023-05-10T02:38:55;14.00;99.90
21037;DHT22;10677;50.942;4.028;2023-05-10T02:41:22;13.90;99.90
21037;DHT22;10677;50.942;4.028;2023-05-10T02:43:50;13.90;99.90
21037;DHT22;10677;50.942;4.028;2023-05-10T02:46:18;13.80;99.90
21037;DHT22;10677;50.942;4.028;2023-05-10T02:48:44;13.60;99.90
21037;DHT22;10677;50.942;4.028;2023-05-10T02:51:12;13.60;99.90
21037;DHT22;10677;50.942;4.028;2023-05-10T02:53:41;13.50;99.90
21037;DHT22;10677;50.942;4.028;2023-05-10T02:56:16;13.60;99.90
21037;DHT22;10677;50.942;4.028;2023-05-10T02:58:45;13.50;99.90
21037;DHT22;10677;50.942;4.028;2023-05-10T03:01:11;13.50;99.90
21037;DHT22;10677;50.942;4.028;2023-05-10T03:03:37;13.40;99.90
21037;DHT22;10677;50.942;4.028;2023-05-10T03:06:03;13.50;99.90
21037;DHT22;10677;50.942;4.028;2023-05-10T03:08:29;13.50;99.90
21037;DHT22;10677;50.942;4.028;2023-05-10T03:11:25;13.70;99.90
21037;DHT22;10677;50.942;4.028;2023-05-10T03:17:04;13.80;99.90
21037;DHT22;10677;50.942;4.028;2023-05-10T03:22:10;13.80;99.90
21037;DHT22;10677;50.942;4.028;2023-05-10T03:24:37;13.90;99.90
21037;DHT22;10677;50.942;4.028;2023-05-10T03:27:05;13.80;99.90
21037;DHT22;10677;50.942;4.028;2023-05-10T03:29:32;13.70;99.90
21037;DHT22;10677;50.942;4.028;2023-05-10T03:31:59;13.90;99.90
21037;DHT22;10677;50.942;4.028;2023-05-10T03:34:25;13.80;99.90
21037;DHT22;10677;50.942;4.028;2023-05-10T03:36:51;13.90;99.90
21037;DHT22;10677;50.942;4.028;2023-05-10T03:41:52;13.70;99.90
21037;DHT22;10677;50.942;4.028;2023-05-10T03:44:17;13.90;99.90
21037;DHT22;10677;50.942;4.028;2023-05-10T03:46:43;14.10;99.90
21037;DHT22;10677;50.942;4.028;2023-05-10T03:49:09;13.70;99.90
21037;DHT22;10677;50.942;4.028;2023-05-10T03:51:35;13.50;99.90
21037;DHT22;10677;50.942;4.028;2023-05-10T03:54:01;13.50;99.90
21037;DHT22;10677;50.942;4.028;2023-05-10T03:56:28;13.50;99.90
21037;DHT22;10677;50.942;4.028;2023-05-10T03:58:54;13.40;99.90
21037;DHT22;10677;50.942;4.028;2023-05-10T04:01:20;13.50;99.90
21037;DHT22;10677;50.942;4.028;2023-05-10T04:03:46;13.60;99.90
21037;DHT22;10677;50.942;4.028;2023-05-10T04:06:11;13.40;99.90
21037;DHT22;10677;50.942;4.028;2023-05-10T04:08:37;13.40;99.90
21037;DHT22;10677;50.942;4.028;2023-05-10T04:11:10;13.40;99.90
21037;DHT22;10677;50.942;4.028;2023-05-10T04:13:36;13.50;99.90
21037;DHT22;10677;50.942;4.028;2023-05-10T04:16:02;13.40;99.90
21037;DHT22;10677;50.942;4.028;2023-05-10T04:18:28;13.50;99.90
21037;DHT22;10677;50.942;4.028;2023-05-10T04:20:53;13.50;99.90
21037;DHT22;10677;50.942;4.028;2023-05-10T04:23:19;13.40;99.90
21037;DHT22;10677;50.942;4.028;2023-05-10T04:25:45;13.30;99.90
21037;DHT22;10677;50.942;4.028;2023-05-10T04:28:10;13.20;99.90
21037;DHT22;10677;50.942;4.028;2023-05-10T04:30:36;13.20;99.90
21037;DHT22;10677;50.942;4.028;2023-05-10T04:33:01;13.20;99.90
21037;DHT22;10677;50.942;4.028;2023-05-10T04:35:28;13.20;99.90
21037;DHT22;10677;50.942;4.028;2023-05-10T04:37:54;13.20;99.90
21037;DHT22;10677;50.942;4.028;2023-05-10T04:40:20;13.20;99.90
21037;DHT22;10677;50.942;4.028;2023-05-10T04:42:46;13.20;99.90
21037;DHT22;10677;50.942;4.028;2023-05-10T04:45:12;13.20;99.90
21037;DHT22;10677;50.942;4.028;2023-05-10T04:47:40;13.20;99.90
21037;DHT22;10677;50.942;4.028;2023-05-10T04:50:06;13.30;99.90
21037;DHT22;10677;50.942;4.028;2023-05-10T04:52:32;13.30;99.90
21037;DHT22;10677;50.942;4.028;2023-05-10T04:54:58;13.20;99.90
21037;DHT22;10677;50.942;4.028;2023-05-10T04:57:24;13.30;99.90
21037;DHT22;10677;50.942;4.028;2023-05-10T04:59:50;13.20;99.90
21037;DHT22;10677;50.942;4.028;2023-05-10T05:02:16;13.30;99.90
21037;DHT22;10677;50.942;4.028;2023-05-10T05:04:42;13.40;99.90
21037;DHT22;10677;50.942;4.028;2023-05-10T05:07:07;13.40;99.90
21037;DHT22;10677;50.942;4.028;2023-05-10T05:09:33;13.50;99.90
21037;DHT22;10677;50.942;4.028;2023-05-10T05:11:59;13.40;99.90
21037;DHT22;10677;50.942;4.028;2023-05-10T05:14:24;13.50;99.90
21037;DHT22;10677;50.942;4.028;2023-05-10T05:16:51;13.60;99.90
21037;DHT22;10677;50.942;4.028;2023-05-10T05:19:17;13.60;99.90
21037;DHT22;10677;50.942;4.028;2023-05-10T05:21:43;13.60;99.90
21037;DHT22;10677;50.942;4.028;2023-05-10T05:24:09;13.90;99.90
21037;DHT22;10677;50.942;4.028;2023-05-10T05:26:35;14.10;99.90
21037;DHT22;10677;50.942;4.028;2023-05-10T05:29:02;14.10;99.90
21037;DHT22;10677;50.942;4.028;2023-05-10T05:31:28;14.30;99.90
21037;DHT22;10677;50.942;4.028;2023-05-10T05:33:54;14.20;99.90
21037;DHT22;10677;50.942;4.028;2023-05-10T05:36:19;14.20;99.90
21037;DHT22;10677;50.942;4.028;2023-05-10T05:38:45;14.40;99.90
21037;DHT22;10677;50.942;4.028;2023-05-10T05:41:11;14.20;99.90
21037;DHT22;10677;50.942;4.028;2023-05-10T05:43:36;14.20;99.90
21037;DHT22;10677;50.942;4.028;2023-05-10T05:46:02;14.30;99.90
21037;DHT22;10677;50.942;4.028;2023-05-10T05:48:30;14.40;99.90
21037;DHT22;10677;50.942;4.028;2023-05-10T05:50:56;14.50;99.90
21037;DHT22;10677;50.942;4.028;2023-05-10T05:53:22;14.50;99.90
21037;DHT22;10677;50.942;4.028;2023-05-10T05:55:56;14.50;99.90
21037;DHT22;10677;50.942;4.028;2023-05-10T05:58:24;14.50;99.90
21037;DHT22;10677;50.942;4.028;2023-05-10T06:00:51;14.50;99.90
21037;DHT22;10677;50.942;4.028;2023-05-10T06:03:20;14.50;99.90
21037;DHT22;10677;50.942;4.028;2023-05-10T06:05:46;14.60;99.90
21037;DHT22;10677;50.942;4.028;2023-05-10T06:08:12;14.50;99.90
21037;DHT22;10677;50.942;4.028;2023-05-10T06:10:37;14.50;99.90
21037;DHT22;10677;50.942;4.028;2023-05-10T06:13:05;14.60;99.90
21037;DHT22;10677;50.942;4.028;2023-05-10T06:15:31;14.50;99.90
21037;DHT22;10677;50.942;4.028;2023-05-10T06:17:58;14.60;99.90
21037;DHT22;10677;50.942;4.028;2023-05-10T06:20:23;14.50;99.90
21037;DHT22;10677;50.942;4.028;2023-05-10T06:22:49;14.70;99.90
21037;DHT22;10677;50.942;4.028;2023-05-10T06:25:15;14.60;99.90
21037;DHT22;10677;50.942;4.028;2023-05-10T06:27:43;14.50;99.90
21037;DHT22;10677;50.942;4.028;2023-05-10T06:30:09;14.50;99.90
21037;DHT22;10677;50.942;4.028;2023-05-10T06:32:38;14.50;99.90
21037;DHT22;10677;50.942;4.028;2023-05-10T06:35:04;14.60;99.90
21037;DHT22;10677;50.942;4.028;2023-05-10T06:37:33;14.70;99.90
21037;DHT22;10677;50.942;4.028;2023-05-10T06:40:00;14.80;99.90
21037;DHT22;10677;50.942;4.028;2023-05-10T06:42:26;14.80;99.90
21037;DHT22;10677;50.942;4.028;2023-05-10T06:44:52;14.80;99.90
21037;DHT22;10677;50.942;4.028;2023-05-10T06:47:19;14.80;99.90
21037;DHT22;10677;50.942;4.028;2023-05-10T06:49:45;14.80;99.90
21037;DHT22;10677;50.942;4.028;2023-05-10T06:52:11;14.70;99.90
21037;DHT22;10677;50.942;4.028;2023-05-10T06:54:37;14.60;99.90
21037;DHT22;10677;50.942;4.028;2023-05-10T06:57:03;14.60;99.90
21037;DHT22;10677;50.942;4.028;2023-05-10T06:59:30;14.70;99.90
21037;DHT22;10677;50.942;4.028;2023-05-10T07:01:56;14.70;99.90
21037;DHT22;10677;50.942;4.028;2023-05-10T07:04:22;14.70;99.90
21037;DHT22;10677;50.942;4.028;2023-05-10T07:06:47;14.70;99.90
21037;DHT22;10677;50.942;4.028;2023-05-10T07:09:14;14.70;99.90
21037;DHT22;10677;50.942;4.028;2023-05-10T07:11:41;14.80;99.90
21037;DHT22;10677;50.942;4.028;2023-05-10T07:14:07;14.80;99.90
21037;DHT22;10677;50.942;4.028;2023-05-10T07:16:32;14.80;99.90
21037;DHT22;10677;50.942;4.028;2023-05-10T07:18:58;14.80;99.90
21037;DHT22;10677;50.942;4.028;2023-05-10T07:21:25;14.90;99.90
21037;DHT22;10677;50.942;4.028;2023-05-10T07:23:54;15.10;99.90
21037;DHT22;10677;50.942;4.028;2023-05-10T07:26:20;15.10;99.90
21037;DHT22;10677;50.942;4.028;2023-05-10T07:28:46;15.20;99.90
21037;DHT22;10677;50.942;4.028;2023-05-10T07:31:12;15.20;99.90
21037;DHT22;10677;50.942;4.028;2023-05-10T07:33:38;15.30;99.90
21037;DHT22;10677;50.942;4.028;2023-05-10T07:36:04;15.30;99.90
21037;DHT22;10677;50.942;4.028;2023-05-10T07:38:30;15.30;99.90
21037;DHT22;10677;50.942;4.028;2023-05-10T07:40:56;15.30;99.90
21037;DHT22;10677;50.942;4.028;2023-05-10T07:43:22;15.30;99.90
21037;DHT22;10677;50.942;4.028;2023-05-10T07:45:47;15.50;99.90
21037;DHT22;10677;50.942;4.028;2023-05-10T07:48:13;15.70;99.90
21037;DHT22;10677;50.942;4.028;2023-05-10T07:50:39;15.80;99.90
21037;DHT22;10677;50.942;4.028;2023-05-10T07:53:05;16.00;99.90
21037;DHT22;10677;50.942;4.028;2023-05-10T07:55:31;16.10;99.90
21037;DHT22;10677;50.942;4.028;2023-05-10T07:57:56;16.30;99.90
21037;DHT22;10677;50.942;4.028;2023-05-10T08:00:22;16.20;99.90
21037;DHT22;10677;50.942;4.028;2023-05-10T08:02:48;16.20;99.90
21037;DHT22;10677;50.942;4.028;2023-05-10T08:05:14;16.10;99.90
21037;DHT22;10677;50.942;4.028;2023-05-10T08:07:39;16.00;99.90
21037;DHT22;10677;50.942;4.028;2023-05-10T08:10:06;15.90;99.90
21037;DHT22;10677;50.942;4.028;2023-05-10T08:12:32;15.90;99.90
21037;DHT22;10677;50.942;4.028;2023-05-10T08:14:57;15.90;99.90
21037;DHT22;10677;50.942;4.028;2023-05-10T08:17:23;16.00;99.90
21037;DHT22;10677;50.942;4.028;2023-05-10T08:19:48;15.90;99.90
21037;DHT22;10677;50.942;4.028;2023-05-10T08:22:14;16.00;99.90
21037;DHT22;10677;50.942;4.028;2023-05-10T08:24:44;16.00;99.90
21037;DHT22;10677;50.942;4.028;2023-05-10T08:27:10;16.20;99.90
21037;DHT22;10677;50.942;4.028;2023-05-10T08:29:37;16.20;99.90
21037;DHT22;10677;50.942;4.028;2023-05-10T08:32:03;16.30;99.90
21037;DHT22;10677;50.942;4.028;2023-05-10T08:34:29;16.20;99.90
21037;DHT22;10677;50.942;4.028;2023-05-10T08:36:57;16.20;99.90
21037;DHT22;10677;50.942;4.028;2023-05-10T08:39:22;15.90;99.90
21037;DHT22;10677;50.942;4.028;2023-05-10T08:41:51;15.90;99.90
21037;DHT22;10677;50.942;4.028;2023-05-10T08:44:17;15.80;99.90
21037;DHT22;10677;50.942;4.028;2023-05-10T08:46:46;15.60;99.90
21037;DHT22;10677;50.942;4.028;2023-05-10T08:49:14;15.70;99.90
21037;DHT22;10677;50.942;4.028;2023-05-10T08:51:47;15.70;99.90
21037;DHT22;10677;50.942;4.028;2023-05-10T08:54:15;15.80;99.90
21037;DHT22;10677;50.942;4.028;2023-05-10T08:56:41;16.10;99.90
21037;DHT22;10677;50.942;4.028;2023-05-10T08:59:07;16.20;99.90
21037;DHT22;10677;50.942;4.028;2023-05-10T09:01:38;16.20;99.90
21037;DHT22;10677;50.942;4.028;2023-05-10T09:04:04;16.10;99.90
21037;DHT22;10677;50.942;4.028;2023-05-10T09:06:29;15.90;99.90
21037;DHT22;10677;50.942;4.028;2023-05-10T09:08:55;15.80;99.90
21037;DHT22;10677;50.942;4.028;2023-05-10T09:11:21;15.80;99.90
21037;DHT22;10677;50.942;4.028;2023-05-10T09:13:48;15.60;99.90
21037;DHT22;10677;50.942;4.028;2023-05-10T09:16:16;15.70;99.90
21037;DHT22;10677;50.942;4.028;2023-05-10T09:18:42;15.60;99.90
21037;DHT22;10677;50.942;4.028;2023-05-10T09:21:11;15.60;99.90
21037;DHT22;10677;50.942;4.028;2023-05-10T09:23:36;15.40;99.90
21037;DHT22;10677;50.942;4.028;2023-05-10T09:26:06;15.40;99.90
21037;DHT22;10677;50.942;4.028;2023-05-10T09:28:33;15.40;99.90
21037;DHT22;10677;50.942;4.028;2023-05-10T09:30:59;15.60;99.90
21037;DHT22;10677;50.942;4.028;2023-05-10T09:33:25;15.60;99.90
21037;DHT22;10677;50.942;4.028;2023-05-10T09:35:51;15.80;99.90
21037;DHT22;10677;50.942;4.028;2023-05-10T09:38:18;15.90;99.90
21037;DHT22;10677;50.942;4.028;2023-05-10T09:40:52;16.10;99.90
21037;DHT22;10677;50.942;4.028;2023-05-10T09:43:20;16.30;99.90
21037;DHT22;10677;50.942;4.028;2023-05-10T09:45:48;16.40;99.90
21037;DHT22;10677;50.942;4.028;2023-05-10T09:48:15;16.10;99.90
21037;DHT22;10677;50.942;4.028;2023-05-10T09:50:42;16.00;99.90
21037;DHT22;10677;50.942;4.028;2023-05-10T09:53:07;16.00;99.90
21037;DHT22;10677;50.942;4.028;2023-05-10T09:55:39;16.00;99.90
21037;DHT22;10677;50.942;4.028;2023-05-10T09:58:07;16.10;99.90
21037;DHT22;10677;50.942;4.028;2023-05-10T10:00:47;16.10;99.90
21037;DHT22;10677;50.942;4.028;2023-05-10T10:03:20;15.90;99.90
21037;DHT22;10677;50.942;4.028;2023-05-10T10:05:47;15.80;99.90
21037;DHT22;10677;50.942;4.028;2023-05-10T10:08:14;15.90;99.90
21037;DHT22;10677;50.942;4.028;2023-05-10T10:10:41;16.00;99.90
21037;DHT22;10677;50.942;4.028;2023-05-10T10:13:07;15.90;99.90
21037;DHT22;10677;50.942;4.028;2023-05-10T10:15:34;15.70;99.90
21037;DHT22;10677;50.942;4.028;2023-05-10T10:18:00;15.60;99.90
21037;DHT22;10677;50.942;4.028;2023-05-10T10:20:26;15.60;99.90
21037;DHT22;10677;50.942;4.028;2023-05-10T10:22:52;15.50;99.90
21037;DHT22;10677;50.942;4.028;2023-05-10T10:25:19;15.60;99.90
21037;DHT22;10677;50.942;4.028;2023-05-10T10:33:06;16.00;99.90
21037;DHT22;10677;50.942;4.028;2023-05-10T10:35:35;16.10;99.90
21037;DHT22;10677;50.942;4.028;2023-05-10T10:38:01;16.00;99.90
21037;DHT22;10677;50.942;4.028;2023-05-10T10:40:30;15.90;99.90
21037;DHT22;10677;50.942;4.028;2023-05-10T10:42:57;15.70;99.90
21037;DHT22;10677;50.942;4.028;2023-05-10T10:45:25;15.90;99.90
21037;DHT22;10677;50.942;4.028;2023-05-10T10:48:22;16.10;99.90
21037;DHT22;10677;50.942;4.028;2023-05-10T10:50:59;16.20;99.90
21037;DHT22;10677;50.942;4.028;2023-05-10T10:53:29;16.40;99.90
21037;DHT22;10677;50.942;4.028;2023-05-10T10:56:10;16.30;99.90
21037;DHT22;10677;50.942;4.028;2023-05-10T10:58:37;16.30;99.90
21037;DHT22;10677;50.942;4.028;2023-05-10T11:01:17;16.40;99.90
21037;DHT22;10677;50.942;4.028;2023-05-10T11:06:33;16.70;99.90
21037;DHT22;10677;50.942;4.028;2023-05-10T11:09:09;16.90;99.90
21037;DHT22;10677;50.942;4.028;2023-05-10T11:11:36;17.00;99.90
21037;DHT22;10677;50.942;4.028;2023-05-10T11:14:06;17.20;99.90
21037;DHT22;10677;50.942;4.028;2023-05-10T11:16:43;17.30;99.90
21037;DHT22;10677;50.942;4.028;2023-05-10T11:19:11;17.40;99.90
21037;DHT22;10677;50.942;4.028;2023-05-10T11:21:52;17.40;99.90
21037;DHT22;10677;50.942;4.028;2023-05-10T11:24:36;17.30;99.90
21037;DHT22;10677;50.942;4.028;2023-05-10T11:27:02;17.60;99.90
21037;DHT22;10677;50.942;4.028;2023-05-10T11:29:28;17.70;99.90
21037;DHT22;10677;50.942;4.028;2023-05-10T11:34:26;17.70;99.90
21037;DHT22;10677;50.942;4.028;2023-05-10T11:36:54;17.70;99.90
21037;DHT22;10677;50.942;4.028;2023-05-10T11:39:20;17.90;99.90
21037;DHT22;10677;50.942;4.028;2023-05-10T11:41:50;18.10;99.90
21037;DHT22;10677;50.942;4.028;2023-05-10T11:44:15;18.20;99.90
21037;DHT22;10677;50.942;4.028;2023-05-10T11:46:41;18.20;99.90
21037;DHT22;10677;50.942;4.028;2023-05-10T11:49:07;18.10;99.90
21037;DHT22;10677;50.942;4.028;2023-05-10T11:51:34;18.30;99.90
21037;DHT22;10677;50.942;4.028;2023-05-10T11:54:09;18.60;99.90
21037;DHT22;10677;50.942;4.028;2023-05-10T11:56:37;18.80;99.90
21037;DHT22;10677;50.942;4.028;2023-05-10T11:59:03;18.70;99.90
21037;DHT22;10677;50.942;4.028;2023-05-10T12:01:31;18.50;99.90
21037;DHT22;10677;50.942;4.028;2023-05-10T12:03:58;18.30;99.90
21037;DHT22;10677;50.942;4.028;2023-05-10T12:06:30;18.30;99.90
21037;DHT22;10677;50.942;4.028;2023-05-10T12:17:18;17.60;99.90
21037;DHT22;10677;50.942;4.028;2023-05-10T12:19:44;17.40;99.90
21037;DHT22;10677;50.942;4.028;2023-05-10T12:22:10;17.50;99.90
21037;DHT22;10677;50.942;4.028;2023-05-10T12:24:36;17.60;99.90
21037;DHT22;10677;50.942;4.028;2023-05-10T12:27:08;17.80;99.90
21037;DHT22;10677;50.942;4.028;2023-05-10T12:29:34;17.90;99.90
21037;DHT22;10677;50.942;4.028;2023-05-10T12:31:59;18.00;99.90
21037;DHT22;10677;50.942;4.028;2023-05-10T12:34:30;18.00;99.90
21037;DHT22;10677;50.942;4.028;2023-05-10T12:36:57;18.10;99.90
21037;DHT22;10677;50.942;4.028;2023-05-10T12:39:24;18.20;99.90
21037;DHT22;10677;50.942;4.028;2023-05-10T12:41:52;18.10;99.90
21037;DHT22;10677;50.942;4.028;2023-05-10T12:44:18;18.10;99.90
21037;DHT22;10677;50.942;4.028;2023-05-10T12:46:44;17.70;99.90
21037;DHT22;10677;50.942;4.028;2023-05-10T12:49:10;17.60;99.90
21037;DHT22;10677;50.942;4.028;2023-05-10T12:51:35;17.80;99.90
21037;DHT22;10677;50.942;4.028;2023-05-10T12:54:02;17.80;99.90
21037;DHT22;10677;50.942;4.028;2023-05-10T12:56:28;17.90;99.90
21037;DHT22;10677;50.942;4.028;2023-05-10T12:58:54;18.00;99.90
21037;DHT22;10677;50.942;4.028;2023-05-10T13:01:19;18.10;99.90
21037;DHT22;10677;50.942;4.028;2023-05-10T13:03:45;18.00;99.90
21037;DHT22;10677;50.942;4.028;2023-05-10T13:08:53;18.20;99.90
21037;DHT22;10677;50.942;4.028;2023-05-10T13:11:20;18.30;99.90
21037;DHT22;10677;50.942;4.028;2023-05-10T13:13:48;18.50;99.90
21037;DHT22;10677;50.942;4.028;2023-05-10T13:16:13;18.60;99.90
21037;DHT22;10677;50.942;4.028;2023-05-10T13:18:39;18.60;99.90
21037;DHT22;10677;50.942;4.028;2023-05-10T13:21:06;18.70;99.90
21037;DHT22;10677;50.942;4.028;2023-05-10T13:23:34;18.80;99.90
21037;DHT22;10677;50.942;4.028;2023-05-10T13:25:59;18.70;99.90
21037;DHT22;10677;50.942;4.028;2023-05-10T13:28:25;18.80;99.90
21037;DHT22;10677;50.942;4.028;2023-05-10T13:30:51;19.00;99.90
21037;DHT22;10677;50.942;4.028;2023-05-10T13:33:17;19.10;99.90
21037;DHT22;10677;50.942;4.028;2023-05-10T13:35:44;19.30;99.90
21037;DHT22;10677;50.942;4.028;2023-05-10T13:38:10;19.20;99.90
21037;DHT22;10677;50.942;4.028;2023-05-10T13:40:35;18.90;99.90
21037;DHT22;10677;50.942;4.028;2023-05-10T13:43:01;18.50;99.90
21037;DHT22;10677;50.942;4.028;2023-05-10T13:45:27;18.30;99.90
21037;DHT22;10677;50.942;4.028;2023-05-10T13:47:53;18.40;99.90
21037;DHT22;10677;50.942;4.028;2023-05-10T13:50:18;18.10;99.90
21037;DHT22;10677;50.942;4.028;2023-05-10T13:52:44;17.80;99.90
21037;DHT22;10677;50.942;4.028;2023-05-10T13:55:10;17.70;99.90
21037;DHT22;10677;50.942;4.028;2023-05-10T13:57:37;17.60;99.90
21037;DHT22;10677;50.942;4.028;2023-05-10T14:00:05;17.50;99.90
21037;DHT22;10677;50.942;4.028;2023-05-10T14:02:31;17.20;99.90
21037;DHT22;10677;50.942;4.028;2023-05-10T14:04:56;17.00;99.90
21037;DHT22;10677;50.942;4.028;2023-05-10T14:07:22;16.90;99.90
21037;DHT22;10677;50.942;4.028;2023-05-10T14:09:48;16.70;99.90
21037;DHT22;10677;50.942;4.028;2023-05-10T14:12:14;16.70;99.90
21037;DHT22;10677;50.942;4.028;2023-05-10T14:14:40;16.70;99.90
21037;DHT22;10677;50.942;4.028;2023-05-10T14:17:05;16.50;99.90
21037;DHT22;10677;50.942;4.028;2023-05-10T14:19:31;16.30;99.90
21037;DHT22;10677;50.942;4.028;2023-05-10T14:21:59;16.20;99.90
21037;DHT22;10677;50.942;4.028;2023-05-10T14:24:24;16.10;99.90
21037;DHT22;10677;50.942;4.028;2023-05-10T14:26:51;16.00;99.90
21037;DHT22;10677;50.942;4.028;2023-05-10T14:29:19;15.90;99.90
21037;DHT22;10677;50.942;4.028;2023-05-10T14:31:45;15.60;99.90
21037;DHT22;10677;50.942;4.028;2023-05-10T14:34:11;15.40;99.90
21037;DHT22;10677;50.942;4.028;2023-05-10T14:36:36;15.30;99.90
21037;DHT22;10677;50.942;4.028;2023-05-10T14:39:02;15.20;99.90
21037;DHT22;10677;50.942;4.028;2023-05-10T14:41:28;15.10;99.90
21037;DHT22;10677;50.942;4.028;2023-05-10T14:43:55;15.20;99.90
21037;DHT22;10677;50.942;4.028;2023-05-10T14:46:21;15.30;99.90
21037;DHT22;10677;50.942;4.028;2023-05-10T14:48:46;15.30;99.90
21037;DHT22;10677;50.942;4.028;2023-05-10T14:51:12;15.30;99.90
21037;DHT22;10677;50.942;4.028;2023-05-10T14:53:38;15.30;99.90
21037;DHT22;10677;50.942;4.028;2023-05-10T14:56:04;15.30;99.90
21037;DHT22;10677;50.942;4.028;2023-05-10T14:58:29;15.30;99.90
21037;DHT22;10677;50.942;4.028;2023-05-10T15:03:33;15.40;99.90
21037;DHT22;10677;50.942;4.028;2023-05-10T15:05:59;15.30;99.90
21037;DHT22;10677;50.942;4.028;2023-05-10T15:08:24;15.30;99.90
21037;DHT22;10677;50.942;4.028;2023-05-10T15:10:51;15.30;99.90
21037;DHT22;10677;50.942;4.028;2023-05-10T15:13:17;15.30;99.90
21037;DHT22;10677;50.942;4.028;2023-05-10T15:15:44;15.30;99.90
21037;DHT22;10677;50.942;4.028;2023-05-10T15:18:09;15.30;99.90
21037;DHT22;10677;50.942;4.028;2023-05-10T15:20:35;15.30;99.90
21037;DHT22;10677;50.942;4.028;2023-05-10T15:23:01;15.30;99.90
21037;DHT22;10677;50.942;4.028;2023-05-10T15:25:29;15.30;99.90
21037;DHT22;10677;50.942;4.028;2023-05-10T15:27:56;15.40;99.90
21037;DHT22;10677;50.942;4.028;2023-05-10T15:30:22;15.50;99.90
21037;DHT22;10677;50.942;4.028;2023-05-10T15:32:48;15.50;99.90
21037;DHT22;10677;50.942;4.028;2023-05-10T15:35:14;15.40;99.90
21037;DHT22;10677;50.942;4.028;2023-05-10T15:37:39;15.60;99.90
21037;DHT22;10677;50.942;4.028;2023-05-10T15:40:06;15.70;99.90
21037;DHT22;10677;50.942;4.028;2023-05-10T15:42:32;15.60;99.90
21037;DHT22;10677;50.942;4.028;2023-05-10T15:44:58;15.60;99.90
21037;DHT22;10677;50.942;4.028;2023-05-10T15:47:24;15.70;99.90
21037;DHT22;10677;50.942;4.028;2023-05-10T15:49:51;15.80;99.90
21037;DHT22;10677;50.942;4.028;2023-05-10T15:52:16;15.80;99.90
21037;DHT22;10677;50.942;4.028;2023-05-10T15:54:43;15.90;99.90
21037;DHT22;10677;50.942;4.028;2023-05-10T15:57:08;15.90;99.90
21037;DHT22;10677;50.942;4.028;2023-05-10T15:59:34;16.00;99.90
21037;DHT22;10677;50.942;4.028;2023-05-10T16:02:00;16.00;99.90
21037;DHT22;10677;50.942;4.028;2023-05-10T16:04:28;16.00;99.90
21037;DHT22;10677;50.942;4.028;2023-05-10T16:06:54;15.90;99.90
21037;DHT22;10677;50.942;4.028;2023-05-10T16:09:20;15.90;99.90
21037;DHT22;10677;50.942;4.028;2023-05-10T16:11:46;15.90;99.90
21037;DHT22;10677;50.942;4.028;2023-05-10T16:14:11;15.70;99.90
21037;DHT22;10677;50.942;4.028;2023-05-10T16:16:37;15.60;99.90
21037;DHT22;10677;50.942;4.028;2023-05-10T16:19:03;15.50;99.90